sensor_id;sensor_type;location;lat;lon;timestamp;temperature;humidity
8664;DHT22;4369;47.842;13.096;2022-11-20T00:00:15;7.50;99.90
8664;DHT22;4369;47.842;13.096;2022-11-20T00:02:42;7.40;99.90
8664;DHT22;4369;47.842;13.096;2022-11-20T00:05:09;7.40;99.90
8664;DHT22;4369;47.842;13.096;2022-11-20T00:07:36;7.40;99.90
8664;DHT22;4369;47.842;13.096;2022-11-20T00:10:03;7.30;99.90
8664;DHT22;4369;47.842;13.096;2022-11-20T00:12:30;7.30;99.90
8664;DHT22;4369;47.842;13.096;2022-11-20T00:14:59;7.30;99.90
8664;DHT22;4369;47.842;13.096;2022-11-20T00:17:26;7.40;99.90
8664;DHT22;4369;47.842;13.096;2022-11-20T00:19:52;7.40;99.90
8664;DHT22;4369;47.842;13.096;2022-11-20T00:22:19;7.40;99.90
8664;DHT22;4369;47.842;13.096;2022-11-20T00:24:46;7.30;99.90
8664;DHT22;4369;47.842;13.096;2022-11-20T00:27:13;7.20;99.90
8664;DHT22;4369;47.842;13.096;2022-11-20T00:29:40;7.10;99.90
8664;DHT22;4369;47.842;13.096;2022-11-20T00:32:08;7.10;99.90
8664;DHT22;4369;47.842;13.096;2022-11-20T00:34:35;7.00;99.90
8664;DHT22;4369;47.842;13.096;2022-11-20T00:37:02;7.00;99.90
8664;DHT22;4369;47.842;13.096;2022-11-20T00:39:28;7.10;99.90
8664;DHT22;4369;47.842;13.096;2022-11-20T00:41:55;7.20;99.90
8664;DHT22;4369;47.842;13.096;2022-11-20T00:44:22;7.20;99.90
8664;DHT22;4369;47.842;13.096;2022-11-20T00:46:49;7.20;99.90
8664;DHT22;4369;47.842;13.096;2022-11-20T00:49:18;7.20;99.90
8664;DHT22;4369;47.842;13.096;2022-11-20T00:51:45;7.20;99.90
8664;DHT22;4369;47.842;13.096;2022-11-20T00:54:11;7.20;99.90
8664;DHT22;4369;47.842;13.096;2022-11-20T00:56:38;7.10;99.90
8664;DHT22;4369;47.842;13.096;2022-11-20T00:59:05;7.10;99.90
8664;DHT22;4369;47.842;13.096;2022-11-20T01:01:32;7.10;99.90
8664;DHT22;4369;47.842;13.096;2022-11-20T01:04:00;7.00;99.90
8664;DHT22;4369;47.842;13.096;2022-11-20T01:06:29;6.90;99.90
8664;DHT22;4369;47.842;13.096;2022-11-20T01:08:59;6.90;99.90
8664;DHT22;4369;47.842;13.096;2022-11-20T01:11:28;6.80;99.90
8664;DHT22;4369;47.842;13.096;2022-11-20T01:13:56;6.80;99.90
8664;DHT22;4369;47.842;13.096;2022-11-20T01:16:25;6.80;99.90
8664;DHT22;4369;47.842;13.096;2022-11-20T01:18:54;6.80;99.90
8664;DHT22;4369;47.842;13.096;2022-11-20T01:21:24;6.80;99.90
8664;DHT22;4369;47.842;13.096;2022-11-20T01:23:53;6.90;99.90
8664;DHT22;4369;47.842;13.096;2022-11-20T01:26:22;6.90;99.90
8664;DHT22;4369;47.842;13.096;2022-11-20T01:28:49;7.00;99.90
8664;DHT22;4369;47.842;13.096;2022-11-20T01:31:18;6.90;99.90
8664;DHT22;4369;47.842;13.096;2022-11-20T01:33:48;7.00;99.90
8664;DHT22;4369;47.842;13.096;2022-11-20T01:36:16;7.00;99.90
8664;DHT22;4369;47.842;13.096;2022-11-20T01:38:43;7.00;99.90
8664;DHT22;4369;47.842;13.096;2022-11-20T01:41:13;7.00;99.90
8664;DHT22;4369;47.842;13.096;2022-11-20T01:44:02;7.00;99.90
8664;DHT22;4369;47.842;13.096;2022-11-20T01:46:29;7.00;99.90
8664;DHT22;4369;47.842;13.096;2022-11-20T01:48:59;7.00;99.90
8664;DHT22;4369;47.842;13.096;2022-11-20T01:51:30;7.00;99.90
8664;DHT22;4369;47.842;13.096;2022-11-20T01:54:01;7.00;99.90
8664;DHT22;4369;47.842;13.096;2022-11-20T01:56:32;7.00;99.90
8664;DHT22;4369;47.842;13.096;2022-11-20T01:59:02;6.90;99.90
8664;DHT22;4369;47.842;13.096;2022-11-20T02:01:30;7.00;99.90
8664;DHT22;4369;47.842;13.096;2022-11-20T02:03:58;6.90;99.90
8664;DHT22;4369;47.842;13.096;2022-11-20T02:06:27;6.80;99.90
8664;DHT22;4369;47.842;13.096;2022-11-20T02:08:55;6.90;99.90
8664;DHT22;4369;47.842;13.096;2022-11-20T02:11:22;6.90;99.90
8664;DHT22;4369;47.842;13.096;2022-11-20T02:13:50;6.80;99.90
8664;DHT22;4369;47.842;13.096;2022-11-20T02:16:21;6.80;99.90
8664;DHT22;4369;47.842;13.096;2022-11-20T02:18:49;6.80;99.90
8664;DHT22;4369;47.842;13.096;2022-11-20T02:21:24;6.80;99.90
8664;DHT22;4369;47.842;13.096;2022-11-20T02:24:07;6.80;99.90
8664;DHT22;4369;47.842;13.096;2022-11-20T02:26:41;6.80;99.90
8664;DHT22;4369;47.842;13.096;2022-11-20T02:29:09;6.90;99.90
8664;DHT22;4369;47.842;13.096;2022-11-20T02:31:38;6.90;99.90
8664;DHT22;4369;47.842;13.096;2022-11-20T02:34:05;6.90;99.90
8664;DHT22;4369;47.842;13.096;2022-11-20T02:36:33;7.00;99.90
8664;DHT22;4369;47.842;13.096;2022-11-20T02:39:02;6.90;99.90
8664;DHT22;4369;47.842;13.096;2022-11-20T02:41:35;7.00;99.90
8664;DHT22;4369;47.842;13.096;2022-11-20T02:44:03;7.10;99.90
8664;DHT22;4369;47.842;13.096;2022-11-20T02:46:30;7.00;99.90
8664;DHT22;4369;47.842;13.096;2022-11-20T02:48:58;7.00;99.90
8664;DHT22;4369;47.842;13.096;2022-11-20T02:51:27;7.00;99.90
8664;DHT22;4369;47.842;13.096;2022-11-20T02:53:54;6.90;99.90
8664;DHT22;4369;47.842;13.096;2022-11-20T02:56:21;7.00;99.90
8664;DHT22;4369;47.842;13.096;2022-11-20T02:58:49;7.00;99.90
8664;DHT22;4369;47.842;13.096;2022-11-20T03:01:16;7.00;99.90
8664;DHT22;4369;47.842;13.096;2022-11-20T03:03:43;7.00;99.90
8664;DHT22;4369;47.842;13.096;2022-11-20T03:06:10;7.00;99.90
8664;DHT22;4369;47.842;13.096;2022-11-20T03:08:36;7.00;99.90
8664;DHT22;4369;47.842;13.096;2022-11-20T03:11:04;7.00;99.90
8664;DHT22;4369;47.842;13.096;2022-11-20T03:13:32;7.00;99.90
8664;DHT22;4369;47.842;13.096;2022-11-20T03:16:06;6.90;99.90
8664;DHT22;4369;47.842;13.096;2022-11-20T03:18:33;7.00;99.90
8664;DHT22;4369;47.842;13.096;2022-11-20T03:21:00;6.90;99.90
8664;DHT22;4369;47.842;13.096;2022-11-20T03:23:29;6.90;99.90
8664;DHT22;4369;47.842;13.096;2022-11-20T03:25:56;6.90;99.90
8664;DHT22;4369;47.842;13.096;2022-11-20T03:28:33;6.90;99.90
8664;DHT22;4369;47.842;13.096;2022-11-20T03:31:07;6.80;99.90
8664;DHT22;4369;47.842;13.096;2022-11-20T03:33:34;6.80;99.90
8664;DHT22;4369;47.842;13.096;2022-11-20T03:36:01;6.80;99.90
8664;DHT22;4369;47.842;13.096;2022-11-20T03:38:29;6.80;99.90
8664;DHT22;4369;47.842;13.096;2022-11-20T03:40:58;6.70;99.90
8664;DHT22;4369;47.842;13.096;2022-11-20T03:43:25;6.70;99.90
8664;DHT22;4369;47.842;13.096;2022-11-20T03:45:52;6.70;99.90
8664;DHT22;4369;47.842;13.096;2022-11-20T03:48:20;6.70;99.90
8664;DHT22;4369;47.842;13.096;2022-11-20T03:50:47;6.70;99.90
8664;DHT22;4369;47.842;13.096;2022-11-20T03:53:14;6.70;99.90
8664;DHT22;4369;47.842;13.096;2022-11-20T03:55:41;6.70;99.90
8664;DHT22;4369;47.842;13.096;2022-11-20T03:58:08;6.80;99.90
8664;DHT22;4369;47.842;13.096;2022-11-20T04:00:35;6.80;99.90
8664;DHT22;4369;47.842;13.096;2022-11-20T04:03:03;6.80;99.90
8664;DHT22;4369;47.842;13.096;2022-11-20T04:05:33;6.80;99.90
8664;DHT22;4369;47.842;13.096;2022-11-20T04:08:00;6.90;99.90
8664;DHT22;4369;47.842;13.096;2022-11-20T04:10:27;6.90;99.90
8664;DHT22;4369;47.842;13.096;2022-11-20T04:12:54;6.90;99.90
8664;DHT22;4369;47.842;13.096;2022-11-20T04:15:20;7.00;99.90
8664;DHT22;4369;47.842;13.096;2022-11-20T04:17:47;7.00;99.90
8664;DHT22;4369;47.842;13.096;2022-11-20T04:20:14;7.00;99.90
8664;DHT22;4369;47.842;13.096;2022-11-20T04:22:42;6.80;99.90
8664;DHT22;4369;47.842;13.096;2022-11-20T04:25:09;6.80;99.90
8664;DHT22;4369;47.842;13.096;2022-11-20T04:27:36;6.80;99.90
8664;DHT22;4369;47.842;13.096;2022-11-20T04:30:03;6.80;99.90
8664;DHT22;4369;47.842;13.096;2022-11-20T04:32:30;6.80;99.90
8664;DHT22;4369;47.842;13.096;2022-11-20T04:34:57;6.80;99.90
8664;DHT22;4369;47.842;13.096;2022-11-20T04:37:24;6.80;99.90
8664;DHT22;4369;47.842;13.096;2022-11-20T04:39:52;6.80;99.90
8664;DHT22;4369;47.842;13.096;2022-11-20T04:42:19;6.70;99.90
8664;DHT22;4369;47.842;13.096;2022-11-20T04:44:55;6.80;99.90
8664;DHT22;4369;47.842;13.096;2022-11-20T04:47:22;6.90;99.90
8664;DHT22;4369;47.842;13.096;2022-11-20T04:49:49;6.90;99.90
8664;DHT22;4369;47.842;13.096;2022-11-20T04:52:16;6.80;99.90
8664;DHT22;4369;47.842;13.096;2022-11-20T04:54:43;6.90;99.90
8664;DHT22;4369;47.842;13.096;2022-11-20T04:57:13;6.90;99.90
8664;DHT22;4369;47.842;13.096;2022-11-20T04:59:40;6.90;99.90
8664;DHT22;4369;47.842;13.096;2022-11-20T05:02:06;6.90;99.90
8664;DHT22;4369;47.842;13.096;2022-11-20T05:04:33;6.80;99.90
8664;DHT22;4369;47.842;13.096;2022-11-20T05:07:00;6.90;99.90
8664;DHT22;4369;47.842;13.096;2022-11-20T05:09:27;7.00;99.90
8664;DHT22;4369;47.842;13.096;2022-11-20T05:11:54;7.00;99.90
8664;DHT22;4369;47.842;13.096;2022-11-20T05:14:22;7.00;99.90
8664;DHT22;4369;47.842;13.096;2022-11-20T05:16:49;7.10;99.90
8664;DHT22;4369;47.842;13.096;2022-11-20T05:19:16;7.00;99.90
8664;DHT22;4369;47.842;13.096;2022-11-20T05:21:42;6.90;99.90
8664;DHT22;4369;47.842;13.096;2022-11-20T05:24:09;6.90;99.90
8664;DHT22;4369;47.842;13.096;2022-11-20T05:26:36;6.80;99.90
8664;DHT22;4369;47.842;13.096;2022-11-20T05:29:03;6.60;99.90
8664;DHT22;4369;47.842;13.096;2022-11-20T05:31:31;6.50;99.90
8664;DHT22;4369;47.842;13.096;2022-11-20T05:33:58;6.40;99.90
8664;DHT22;4369;47.842;13.096;2022-11-20T05:36:37;6.50;99.90
8664;DHT22;4369;47.842;13.096;2022-11-20T05:39:07;6.40;99.90
8664;DHT22;4369;47.842;13.096;2022-11-20T05:41:35;6.40;99.90
8664;DHT22;4369;47.842;13.096;2022-11-20T05:44:02;6.40;99.90
8664;DHT22;4369;47.842;13.096;2022-11-20T05:46:30;6.40;99.90
8664;DHT22;4369;47.842;13.096;2022-11-20T05:48:58;6.40;99.90
8664;DHT22;4369;47.842;13.096;2022-11-20T05:51:25;6.20;99.90
8664;DHT22;4369;47.842;13.096;2022-11-20T05:53:56;6.20;99.90
8664;DHT22;4369;47.842;13.096;2022-11-20T05:56:23;6.20;99.90
8664;DHT22;4369;47.842;13.096;2022-11-20T05:58:51;6.20;99.90
8664;DHT22;4369;47.842;13.096;2022-11-20T06:01:19;6.20;99.90
8664;DHT22;4369;47.842;13.096;2022-11-20T06:03:48;6.20;99.90
8664;DHT22;4369;47.842;13.096;2022-11-20T06:06:17;6.20;99.90
8664;DHT22;4369;47.842;13.096;2022-11-20T06:08:44;6.20;99.90
8664;DHT22;4369;47.842;13.096;2022-11-20T06:11:12;6.20;99.90
8664;DHT22;4369;47.842;13.096;2022-11-20T06:13:40;6.30;99.90
8664;DHT22;4369;47.842;13.096;2022-11-20T06:16:07;6.30;99.90
8664;DHT22;4369;47.842;13.096;2022-11-20T06:18:34;6.30;99.90
8664;DHT22;4369;47.842;13.096;2022-11-20T06:21:04;6.40;99.90
8664;DHT22;4369;47.842;13.096;2022-11-20T06:23:32;6.50;99.90
8664;DHT22;4369;47.842;13.096;2022-11-20T06:28:46;6.50;99.90
8664;DHT22;4369;47.842;13.096;2022-11-20T06:31:17;6.50;99.90
8664;DHT22;4369;47.842;13.096;2022-11-20T06:33:44;6.50;99.90
8664;DHT22;4369;47.842;13.096;2022-11-20T06:36:14;6.50;99.90
8664;DHT22;4369;47.842;13.096;2022-11-20T06:38:41;6.50;99.90
8664;DHT22;4369;47.842;13.096;2022-11-20T06:41:11;6.50;99.90
8664;DHT22;4369;47.842;13.096;2022-11-20T06:43:38;6.60;99.90
8664;DHT22;4369;47.842;13.096;2022-11-20T06:46:05;6.60;99.90
8664;DHT22;4369;47.842;13.096;2022-11-20T06:48:32;6.50;99.90
8664;DHT22;4369;47.842;13.096;2022-11-20T06:50:59;6.50;99.90
8664;DHT22;4369;47.842;13.096;2022-11-20T06:53:27;6.40;99.90
8664;DHT22;4369;47.842;13.096;2022-11-20T06:55:56;6.40;99.90
8664;DHT22;4369;47.842;13.096;2022-11-20T06:58:23;6.50;99.90
8664;DHT22;4369;47.842;13.096;2022-11-20T07:00:50;6.50;99.90
8664;DHT22;4369;47.842;13.096;2022-11-20T07:03:17;6.60;99.90
8664;DHT22;4369;47.842;13.096;2022-11-20T07:05:43;6.70;99.90
8664;DHT22;4369;47.842;13.096;2022-11-20T07:08:11;6.70;99.90
8664;DHT22;4369;47.842;13.096;2022-11-20T07:10:39;6.60;99.90
8664;DHT22;4369;47.842;13.096;2022-11-20T07:13:06;6.70;99.90
8664;DHT22;4369;47.842;13.096;2022-11-20T07:15:33;6.70;99.90
8664;DHT22;4369;47.842;13.096;2022-11-20T07:18:00;6.70;99.90
8664;DHT22;4369;47.842;13.096;2022-11-20T07:20:27;6.80;99.90
8664;DHT22;4369;47.842;13.096;2022-11-20T07:22:55;6.70;99.90
8664;DHT22;4369;47.842;13.096;2022-11-20T07:25:22;6.70;99.90
8664;DHT22;4369;47.842;13.096;2022-11-20T07:27:50;6.70;99.90
8664;DHT22;4369;47.842;13.096;2022-11-20T07:30:18;6.70;99.90
8664;DHT22;4369;47.842;13.096;2022-11-20T07:32:46;6.60;99.90
8664;DHT22;4369;47.842;13.096;2022-11-20T07:35:13;6.70;99.90
8664;DHT22;4369;47.842;13.096;2022-11-20T07:37:40;6.70;99.90
8664;DHT22;4369;47.842;13.096;2022-11-20T07:40:07;6.70;99.90
8664;DHT22;4369;47.842;13.096;2022-11-20T07:42:34;6.80;99.90
8664;DHT22;4369;47.842;13.096;2022-11-20T07:45:03;6.80;99.90
8664;DHT22;4369;47.842;13.096;2022-11-20T07:47:35;6.80;99.90
8664;DHT22;4369;47.842;13.096;2022-11-20T07:50:02;6.90;99.90
8664;DHT22;4369;47.842;13.096;2022-11-20T07:52:29;6.90;99.90
8664;DHT22;4369;47.842;13.096;2022-11-20T07:54:56;6.90;99.90
8664;DHT22;4369;47.842;13.096;2022-11-20T07:57:22;7.00;99.90
8664;DHT22;4369;47.842;13.096;2022-11-20T07:59:49;7.00;99.90
8664;DHT22;4369;47.842;13.096;2022-11-20T08:02:17;7.00;99.90
8664;DHT22;4369;47.842;13.096;2022-11-20T08:04:44;7.10;99.90
8664;DHT22;4369;47.842;13.096;2022-11-20T08:07:11;7.10;99.90
8664;DHT22;4369;47.842;13.096;2022-11-20T08:09:38;7.10;99.90
8664;DHT22;4369;47.842;13.096;2022-11-20T08:12:17;7.10;99.90
8664;DHT22;4369;47.842;13.096;2022-11-20T08:15:02;7.10;99.90
8664;DHT22;4369;47.842;13.096;2022-11-20T08:17:30;7.10;99.90
8664;DHT22;4369;47.842;13.096;2022-11-20T08:19:58;7.20;99.90
8664;DHT22;4369;47.842;13.096;2022-11-20T08:22:25;7.30;99.90
8664;DHT22;4369;47.842;13.096;2022-11-20T08:24:52;7.30;99.90
8664;DHT22;4369;47.842;13.096;2022-11-20T08:27:19;7.20;99.90
8664;DHT22;4369;47.842;13.096;2022-11-20T08:29:46;7.20;99.90
8664;DHT22;4369;47.842;13.096;2022-11-20T08:32:13;7.20;99.90
8664;DHT22;4369;47.842;13.096;2022-11-20T08:34:41;7.20;99.90
8664;DHT22;4369;47.842;13.096;2022-11-20T08:37:08;7.20;99.90
8664;DHT22;4369;47.842;13.096;2022-11-20T08:39:35;7.20;99.90
8664;DHT22;4369;47.842;13.096;2022-11-20T08:42:02;7.20;99.90
8664;DHT22;4369;47.842;13.096;2022-11-20T08:44:29;7.30;99.90
8664;DHT22;4369;47.842;13.096;2022-11-20T08:46:55;7.30;99.90
8664;DHT22;4369;47.842;13.096;2022-11-20T08:49:22;7.30;99.90
8664;DHT22;4369;47.842;13.096;2022-11-20T08:51:50;7.20;99.90
8664;DHT22;4369;47.842;13.096;2022-11-20T08:54:20;7.30;99.90
8664;DHT22;4369;47.842;13.096;2022-11-20T08:56:48;7.40;99.90
8664;DHT22;4369;47.842;13.096;2022-11-20T08:59:14;7.50;99.90
8664;DHT22;4369;47.842;13.096;2022-11-20T09:01:41;7.60;99.90
8664;DHT22;4369;47.842;13.096;2022-11-20T09:04:08;7.60;99.90
8664;DHT22;4369;47.842;13.096;2022-11-20T09:06:35;7.80;99.90
8664;DHT22;4369;47.842;13.096;2022-11-20T09:09:03;8.10;99.90
8664;DHT22;4369;47.842;13.096;2022-11-20T09:11:31;8.20;99.90
8664;DHT22;4369;47.842;13.096;2022-11-20T09:13:57;8.40;99.90
8664;DHT22;4369;47.842;13.096;2022-11-20T09:16:25;8.50;99.90
8664;DHT22;4369;47.842;13.096;2022-11-20T09:18:52;8.60;99.90
8664;DHT22;4369;47.842;13.096;2022-11-20T09:21:19;8.70;99.90
8664;DHT22;4369;47.842;13.096;2022-11-20T09:23:45;8.90;99.90
8664;DHT22;4369;47.842;13.096;2022-11-20T09:26:14;9.00;99.90
8664;DHT22;4369;47.842;13.096;2022-11-20T09:28:41;9.00;99.90
8664;DHT22;4369;47.842;13.096;2022-11-20T09:31:08;9.10;99.90
8664;DHT22;4369;47.842;13.096;2022-11-20T09:33:35;9.00;99.90
8664;DHT22;4369;47.842;13.096;2022-11-20T09:36:02;8.80;99.90
8664;DHT22;4369;47.842;13.096;2022-11-20T09:38:29;8.70;99.90
8664;DHT22;4369;47.842;13.096;2022-11-20T09:40:58;8.70;99.90
8664;DHT22;4369;47.842;13.096;2022-11-20T09:43:42;8.70;99.90
8664;DHT22;4369;47.842;13.096;2022-11-20T09:46:17;8.80;99.90
8664;DHT22;4369;47.842;13.096;2022-11-20T09:48:58;8.70;99.90
8664;DHT22;4369;47.842;13.096;2022-11-20T09:51:38;8.60;99.90
8664;DHT22;4369;47.842;13.096;2022-11-20T09:54:15;8.60;99.90
8664;DHT22;4369;47.842;13.096;2022-11-20T09:56:45;8.60;99.90
8664;DHT22;4369;47.842;13.096;2022-11-20T09:59:35;8.60;99.90
8664;DHT22;4369;47.842;13.096;2022-11-20T10:02:12;8.60;99.90
8664;DHT22;4369;47.842;13.096;2022-11-20T10:04:45;8.60;99.90
8664;DHT22;4369;47.842;13.096;2022-11-20T10:07:17;8.60;99.90
8664;DHT22;4369;47.842;13.096;2022-11-20T10:09:51;8.40;99.90
8664;DHT22;4369;47.842;13.096;2022-11-20T10:12:22;8.40;99.90
8664;DHT22;4369;47.842;13.096;2022-11-20T10:15:01;8.50;99.90
8664;DHT22;4369;47.842;13.096;2022-11-20T10:17:48;8.50;99.90
8664;DHT22;4369;47.842;13.096;2022-11-20T10:20:25;8.60;99.90
8664;DHT22;4369;47.842;13.096;2022-11-20T10:23:08;8.80;99.90
8664;DHT22;4369;47.842;13.096;2022-11-20T10:25:38;9.00;99.90
8664;DHT22;4369;47.842;13.096;2022-11-20T10:28:34;9.40;99.90
8664;DHT22;4369;47.842;13.096;2022-11-20T10:31:11;11.10;96.80
8664;DHT22;4369;47.842;13.096;2022-11-20T10:33:41;14.30;87.60
8664;DHT22;4369;47.842;13.096;2022-11-20T10:36:15;16.40;72.30
8664;DHT22;4369;47.842;13.096;2022-11-20T10:38:46;17.70;62.40
8664;DHT22;4369;47.842;13.096;2022-11-20T10:41:19;19.30;58.70
8664;DHT22;4369;47.842;13.096;2022-11-20T10:43:58;19.30;54.00
8664;DHT22;4369;47.842;13.096;2022-11-20T10:46:34;17.10;55.20
8664;DHT22;4369;47.842;13.096;2022-11-20T10:49:06;14.90;58.50
8664;DHT22;4369;47.842;13.096;2022-11-20T10:51:41;13.50;62.90
8664;DHT22;4369;47.842;13.096;2022-11-20T10:54:18;13.00;61.50
8664;DHT22;4369;47.842;13.096;2022-11-20T10:56:50;15.00;64.60
8664;DHT22;4369;47.842;13.096;2022-11-20T10:59:32;15.70;58.60
8664;DHT22;4369;47.842;13.096;2022-11-20T11:02:15;14.50;59.70
8664;DHT22;4369;47.842;13.096;2022-11-20T11:04:44;13.90;62.60
8664;DHT22;4369;47.842;13.096;2022-11-20T11:07:15;12.90;63.80
8664;DHT22;4369;47.842;13.096;2022-11-20T11:09:47;12.40;68.50
8664;DHT22;4369;47.842;13.096;2022-11-20T11:12:14;13.90;65.30
8664;DHT22;4369;47.842;13.096;2022-11-20T11:14:49;15.70;63.80
8664;DHT22;4369;47.842;13.096;2022-11-20T11:17:26;19.30;57.40
8664;DHT22;4369;47.842;13.096;2022-11-20T11:20:06;21.00;49.10
8664;DHT22;4369;47.842;13.096;2022-11-20T11:22:39;22.20;43.70
8664;DHT22;4369;47.842;13.096;2022-11-20T11:25:18;19.70;45.00
8664;DHT22;4369;47.842;13.096;2022-11-20T11:27:46;14.90;51.10
8664;DHT22;4369;47.842;13.096;2022-11-20T11:30:15;13.10;55.90
8664;DHT22;4369;47.842;13.096;2022-11-20T11:32:44;11.60;61.40
8664;DHT22;4369;47.842;13.096;2022-11-20T11:35:25;11.10;67.50
8664;DHT22;4369;47.842;13.096;2022-11-20T11:38:01;10.40;65.10
8664;DHT22;4369;47.842;13.096;2022-11-20T11:40:31;10.20;66.80
8664;DHT22;4369;47.842;13.096;2022-11-20T11:43:01;10.10;67.80
8664;DHT22;4369;47.842;13.096;2022-11-20T11:45:29;10.00;69.10
8664;DHT22;4369;47.842;13.096;2022-11-20T11:47:58;9.90;70.50
8664;DHT22;4369;47.842;13.096;2022-11-20T11:50:27;9.80;68.90
8664;DHT22;4369;47.842;13.096;2022-11-20T11:53:00;9.60;68.60
8664;DHT22;4369;47.842;13.096;2022-11-20T11:55:31;9.60;72.50
8664;DHT22;4369;47.842;13.096;2022-11-20T11:58:11;9.60;70.80
8664;DHT22;4369;47.842;13.096;2022-11-20T12:00:48;9.60;70.40
8664;DHT22;4369;47.842;13.096;2022-11-20T12:03:22;9.60;71.50
8664;DHT22;4369;47.842;13.096;2022-11-20T12:05:55;9.60;74.00
8664;DHT22;4369;47.842;13.096;2022-11-20T12:08:26;9.50;73.80
8664;DHT22;4369;47.842;13.096;2022-11-20T12:10:57;9.50;74.40
8664;DHT22;4369;47.842;13.096;2022-11-20T12:13:40;9.40;75.00
8664;DHT22;4369;47.842;13.096;2022-11-20T12:16:13;9.50;76.20
8664;DHT22;4369;47.842;13.096;2022-11-20T12:18:44;9.60;77.50
8664;DHT22;4369;47.842;13.096;2022-11-20T12:21:20;9.80;74.50
8664;DHT22;4369;47.842;13.096;2022-11-20T12:24:03;10.00;72.70
8664;DHT22;4369;47.842;13.096;2022-11-20T12:26:49;10.00;74.10
8664;DHT22;4369;47.842;13.096;2022-11-20T12:29:30;10.10;72.50
8664;DHT22;4369;47.842;13.096;2022-11-20T12:32:22;10.70;77.00
8664;DHT22;4369;47.842;13.096;2022-11-20T12:35:02;12.40;67.20
8664;DHT22;4369;47.842;13.096;2022-11-20T12:52:22;17.90;51.30
8664;DHT22;4369;47.842;13.096;2022-11-20T12:55:13;17.10;52.40
8664;DHT22;4369;47.842;13.096;2022-11-20T13:00:15;14.70;53.90
8664;DHT22;4369;47.842;13.096;2022-11-20T13:05:53;12.00;57.00
8664;DHT22;4369;47.842;13.096;2022-11-20T13:08:25;11.40;60.10
8664;DHT22;4369;47.842;13.096;2022-11-20T13:10:59;11.10;63.40
8664;DHT22;4369;47.842;13.096;2022-11-20T13:13:35;11.00;62.00
8664;DHT22;4369;47.842;13.096;2022-11-20T13:16:10;10.90;62.20
8664;DHT22;4369;47.842;13.096;2022-11-20T13:18:40;10.70;62.60
8664;DHT22;4369;47.842;13.096;2022-11-20T13:21:16;10.50;61.40
8664;DHT22;4369;47.842;13.096;2022-11-20T13:23:45;10.60;63.20
8664;DHT22;4369;47.842;13.096;2022-11-20T13:26:17;10.50;64.60
8664;DHT22;4369;47.842;13.096;2022-11-20T13:28:47;10.40;65.40
8664;DHT22;4369;47.842;13.096;2022-11-20T13:31:34;10.30;64.40
8664;DHT22;4369;47.842;13.096;2022-11-20T13:34:04;10.20;65.70
8664;DHT22;4369;47.842;13.096;2022-11-20T13:36:32;10.20;66.80
8664;DHT22;4369;47.842;13.096;2022-11-20T13:39:03;10.10;66.80
8664;DHT22;4369;47.842;13.096;2022-11-20T13:41:31;10.20;70.10
8664;DHT22;4369;47.842;13.096;2022-11-20T13:44:09;10.10;69.60
8664;DHT22;4369;47.842;13.096;2022-11-20T13:46:38;10.10;69.80
8664;DHT22;4369;47.842;13.096;2022-11-20T13:49:09;10.10;69.30
8664;DHT22;4369;47.842;13.096;2022-11-20T13:51:42;10.00;70.50
8664;DHT22;4369;47.842;13.096;2022-11-20T13:59:38;10.10;72.50
8664;DHT22;4369;47.842;13.096;2022-11-20T14:04:45;10.00;72.20
8664;DHT22;4369;47.842;13.096;2022-11-20T14:07:57;10.10;74.50
8664;DHT22;4369;47.842;13.096;2022-11-20T14:13:20;10.20;73.60
8664;DHT22;4369;47.842;13.096;2022-11-20T14:15:57;10.20;74.10
8664;DHT22;4369;47.842;13.096;2022-11-20T14:18:26;10.20;76.70
8664;DHT22;4369;47.842;13.096;2022-11-20T14:31:22;10.20;79.80
8664;DHT22;4369;47.842;13.096;2022-11-20T14:39:48;9.90;78.10
8664;DHT22;4369;47.842;13.096;2022-11-20T14:42:33;9.90;80.10
8664;DHT22;4369;47.842;13.096;2022-11-20T14:47:38;9.80;80.70
8664;DHT22;4369;47.842;13.096;2022-11-20T14:50:13;9.70;79.30
8664;DHT22;4369;47.842;13.096;2022-11-20T14:52:52;9.60;81.00
8664;DHT22;4369;47.842;13.096;2022-11-20T14:55:30;9.60;82.60
8664;DHT22;4369;47.842;13.096;2022-11-20T14:57:59;9.50;83.60
8664;DHT22;4369;47.842;13.096;2022-11-20T15:00:27;9.40;83.30
8664;DHT22;4369;47.842;13.096;2022-11-20T15:02:56;9.40;85.30
8664;DHT22;4369;47.842;13.096;2022-11-20T15:05:25;9.30;86.90
8664;DHT22;4369;47.842;13.096;2022-11-20T15:08:05;9.20;90.60
8664;DHT22;4369;47.842;13.096;2022-11-20T15:10:33;9.20;92.20
8664;DHT22;4369;47.842;13.096;2022-11-20T15:13:03;9.10;91.00
8664;DHT22;4369;47.842;13.096;2022-11-20T15:15:32;9.00;92.00
8664;DHT22;4369;47.842;13.096;2022-11-20T15:18:03;9.00;92.60
8664;DHT22;4369;47.842;13.096;2022-11-20T15:20:32;8.90;95.30
8664;DHT22;4369;47.842;13.096;2022-11-20T15:22:59;8.90;95.10
8664;DHT22;4369;47.842;13.096;2022-11-20T15:25:26;8.80;96.60
8664;DHT22;4369;47.842;13.096;2022-11-20T15:27:56;8.80;97.20
8664;DHT22;4369;47.842;13.096;2022-11-20T15:30:23;8.70;97.10
8664;DHT22;4369;47.842;13.096;2022-11-20T15:32:50;8.70;98.10
8664;DHT22;4369;47.842;13.096;2022-11-20T15:35:18;8.70;98.50
8664;DHT22;4369;47.842;13.096;2022-11-20T15:37:45;8.50;99.70
8664;DHT22;4369;47.842;13.096;2022-11-20T15:40:12;8.50;99.90
8664;DHT22;4369;47.842;13.096;2022-11-20T15:42:39;8.50;99.90
8664;DHT22;4369;47.842;13.096;2022-11-20T15:45:28;8.30;99.90
8664;DHT22;4369;47.842;13.096;2022-11-20T15:47:56;8.20;99.90
8664;DHT22;4369;47.842;13.096;2022-11-20T15:50:27;8.20;99.90
8664;DHT22;4369;47.842;13.096;2022-11-20T15:52:56;8.00;99.90
8664;DHT22;4369;47.842;13.096;2022-11-20T15:55:23;8.00;99.90
8664;DHT22;4369;47.842;13.096;2022-11-20T15:57:50;7.90;99.90
8664;DHT22;4369;47.842;13.096;2022-11-20T16:00:18;7.90;99.90
8664;DHT22;4369;47.842;13.096;2022-11-20T16:02:45;7.90;99.90
8664;DHT22;4369;47.842;13.096;2022-11-20T16:05:13;7.80;99.90
8664;DHT22;4369;47.842;13.096;2022-11-20T16:07:43;7.80;99.90
8664;DHT22;4369;47.842;13.096;2022-11-20T16:10:10;7.80;99.90
8664;DHT22;4369;47.842;13.096;2022-11-20T16:12:37;7.60;99.90
8664;DHT22;4369;47.842;13.096;2022-11-20T16:15:21;7.60;99.90
8664;DHT22;4369;47.842;13.096;2022-11-20T16:18:08;7.60;99.90
8664;DHT22;4369;47.842;13.096;2022-11-20T16:20:38;7.50;99.90
8664;DHT22;4369;47.842;13.096;2022-11-20T16:23:07;7.40;99.90
8664;DHT22;4369;47.842;13.096;2022-11-20T16:25:34;7.40;99.90
8664;DHT22;4369;47.842;13.096;2022-11-20T16:28:00;7.40;99.90
8664;DHT22;4369;47.842;13.096;2022-11-20T16:30:28;7.30;99.90
8664;DHT22;4369;47.842;13.096;2022-11-20T16:33:01;7.30;99.90
8664;DHT22;4369;47.842;13.096;2022-11-20T16:35:29;7.30;99.90
8664;DHT22;4369;47.842;13.096;2022-11-20T16:37:59;7.30;99.90
8664;DHT22;4369;47.842;13.096;2022-11-20T16:40:34;7.30;99.90
8664;DHT22;4369;47.842;13.096;2022-11-20T16:43:07;7.40;99.90
8664;DHT22;4369;47.842;13.096;2022-11-20T16:45:40;7.40;99.90
8664;DHT22;4369;47.842;13.096;2022-11-20T16:48:11;7.40;99.90
8664;DHT22;4369;47.842;13.096;2022-11-20T16:50:45;7.30;99.90
8664;DHT22;4369;47.842;13.096;2022-11-20T16:53:17;7.40;99.90
8664;DHT22;4369;47.842;13.096;2022-11-20T16:58:15;7.40;99.90
8664;DHT22;4369;47.842;13.096;2022-11-20T17:00:44;7.40;99.90
8664;DHT22;4369;47.842;13.096;2022-11-20T17:03:20;7.40;99.90
8664;DHT22;4369;47.842;13.096;2022-11-20T17:05:50;7.50;99.90
8664;DHT22;4369;47.842;13.096;2022-11-20T17:08:19;7.50;99.90
8664;DHT22;4369;47.842;13.096;2022-11-20T17:10:51;7.50;99.90
8664;DHT22;4369;47.842;13.096;2022-11-20T17:13:20;7.40;99.90